Forside
METAR-TAF:

METAR-TAF

Lufthavne :

N'Djamena internationale lufthavn

N'Djamena, Tchad

Breddekreds: 12-08N, længdekreds: 015-02E, højde: 295 m

Aktuelle vejr

Denne rapport blev lavet for 47 minutter siden, kl. 02:00 UTC
Vind 1 kt fra varierende retninger
Temperatur 25°C
Fugtighed 94%
Tryk 1012 hPa
Sigt 10 km eller mere
ingen skyer under 1500m og ingen cumulonimbus

METAR: FTTJ 160200Z VRB01KT CAVOK 25/24 Q1012 NOSIG

Tid: 03:47 (02:47 UTC)

Vejrudsigter

Denne rapport blev lavet for 3 timer og 47 minutter siden, kl. 23:00 UTC
Foreløbig gælder fra 16 på 00 UTC til 17 på 06 UTC
Vind 6 kt fra syd
Sigt 10 km eller mere
ingen skyer under 1500m og ingen cumulonimbus
Midlertidig
fra 16 på 10 UTC til 16 på 16 UTC
Sigt: 4000 m
tordenbyger, regn
Sandsynlighed 40% :
Midlertidig
fra 17 på 00 UTC til 17 på 06 UTC
Sigt: 3000 m
tordenbyger, regn

TAF: FTTJ 152300Z 1600/1706 18006KT CAVOK TEMPO 1610/1616 4000 TSRA PROB40 TEMPO 1700/1706 3000 TSRA

Vejrobservationer og prognoser fra mere end 4000 lufthavne (METAR og TAF).

De gule og røde prikker repræsenterer de meteorologiske stationer.

Flyt musen over at se navnet på stationen.

Så klik over at se vejr observationer og prognoser.

At skifte det kort: Klik på de grønne knapper med et sort kors for at zoome ind; på den grønne knap med en bindestreg for at zoome ud; eller på de grønne pile for tilstødende kort.


METAR-TAF: